sensor_id;sensor_type;location;lat;lon;timestamp;pressure;altitude;pressure_sealevel;temperature;humidity
29383;BME280;16365;51.598;7.668;2023-02-13T00:01:52;103098.19;;;14.90;47.14
29383;BME280;16365;51.598;7.668;2023-02-13T00:04:19;103095.69;;;14.88;47.07
29383;BME280;16365;51.598;7.668;2023-02-13T00:06:46;103099.31;;;14.89;46.95
29383;BME280;16365;51.598;7.668;2023-02-13T00:09:15;103102.94;;;14.89;47.15
29383;BME280;16365;51.598;7.668;2023-02-13T00:11:41;103094.84;;;14.88;47.16
29383;BME280;16365;51.598;7.668;2023-02-13T00:14:08;103093.72;;;14.89;47.14
29383;BME280;16365;51.598;7.668;2023-02-13T00:16:34;103082.25;;;14.90;46.89
29383;BME280;16365;51.598;7.668;2023-02-13T00:19:01;103088.13;;;14.89;46.91
29383;BME280;16365;51.598;7.668;2023-02-13T00:21:27;103089.00;;;14.89;47.15
29383;BME280;16365;51.598;7.668;2023-02-13T00:23:53;103081.72;;;14.88;47.29
29383;BME280;16365;51.598;7.668;2023-02-13T00:26:21;103080.88;;;14.88;47.18
29383;BME280;16365;51.598;7.668;2023-02-13T00:28:47;103078.09;;;14.88;47.25
29383;BME280;16365;51.598;7.668;2023-02-13T00:31:16;103076.75;;;14.85;47.12
29383;BME280;16365;51.598;7.668;2023-02-13T00:33:43;103076.75;;;14.85;47.10
29383;BME280;16365;51.598;7.668;2023-02-13T00:36:12;103083.75;;;14.83;47.39
29383;BME280;16365;51.598;7.668;2023-02-13T00:38:40;103081.25;;;14.81;47.22
29383;BME280;16365;51.598;7.668;2023-02-13T00:41:08;103069.25;;;14.81;47.17
29383;BME280;16365;51.598;7.668;2023-02-13T00:43:35;103076.00;;;14.80;46.99
29383;BME280;16365;51.598;7.668;2023-02-13T00:46:02;103078.78;;;14.80;47.46
29383;BME280;16365;51.598;7.668;2023-02-13T00:48:29;103076.25;;;14.78;47.54
29383;BME280;16365;51.598;7.668;2023-02-13T00:50:57;103071.81;;;14.77;47.12
29383;BME280;16365;51.598;7.668;2023-02-13T00:53:24;103072.94;;;14.76;47.40
29383;BME280;16365;51.598;7.668;2023-02-13T00:55:51;103078.53;;;14.76;47.17
29383;BME280;16365;51.598;7.668;2023-02-13T00:58:19;103080.50;;;14.76;47.32
29383;BME280;16365;51.598;7.668;2023-02-13T01:00:45;103073.78;;;14.77;47.32
29383;BME280;16365;51.598;7.668;2023-02-13T01:03:13;103075.75;;;14.76;47.59
29383;BME280;16365;51.598;7.668;2023-02-13T01:05:41;103080.50;;;14.76;47.52
29383;BME280;16365;51.598;7.668;2023-02-13T01:08:08;103075.19;;;14.74;47.57
29383;BME280;16365;51.598;7.668;2023-02-13T01:10:40;103078.59;;;14.71;47.60
29383;BME280;16365;51.598;7.668;2023-02-13T01:13:07;103071.88;;;14.72;47.43
29383;BME280;16365;51.598;7.668;2023-02-13T01:15:35;103073.84;;;14.72;47.73
29383;BME280;16365;51.598;7.668;2023-02-13T01:18:02;103076.09;;;14.70;47.54
29383;BME280;16365;51.598;7.668;2023-02-13T01:20:29;103076.41;;;14.68;47.68
29383;BME280;16365;51.598;7.668;2023-02-13T01:22:56;103073.91;;;14.67;47.80
29383;BME280;16365;51.598;7.668;2023-02-13T01:25:23;103082.28;;;14.67;47.53
29383;BME280;16365;51.598;7.668;2023-02-13T01:27:50;103073.34;;;14.64;47.49
29383;BME280;16365;51.598;7.668;2023-02-13T01:30:17;103078.13;;;14.64;47.53
29383;BME280;16365;51.598;7.668;2023-02-13T01:32:45;103073.66;;;14.63;47.90
29383;BME280;16365;51.598;7.668;2023-02-13T01:35:12;103077.28;;;14.63;47.51
29383;BME280;16365;51.598;7.668;2023-02-13T01:37:40;103072.84;;;14.62;47.99
29383;BME280;16365;51.598;7.668;2023-02-13T01:40:10;103078.72;;;14.61;47.98
29383;BME280;16365;51.598;7.668;2023-02-13T01:42:37;103076.47;;;14.63;47.78
29383;BME280;16365;51.598;7.668;2023-02-13T01:45:24;103072.59;;;14.59;48.35
29383;BME280;16365;51.598;7.668;2023-02-13T01:47:57;103068.41;;;14.61;48.22
29383;BME280;16365;51.598;7.668;2023-02-13T01:53:09;103066.44;;;14.62;48.34
29383;BME280;16365;51.598;7.668;2023-02-13T01:55:50;103068.41;;;14.61;48.14
29383;BME280;16365;51.598;7.668;2023-02-13T01:58:20;103071.69;;;14.63;48.16
29383;BME280;16365;51.598;7.668;2023-02-13T02:00:47;103065.28;;;14.63;47.62
29383;BME280;16365;51.598;7.668;2023-02-13T02:03:19;103063.63;;;14.62;47.82
29383;BME280;16365;51.598;7.668;2023-02-13T02:05:49;103064.47;;;14.62;48.11
29383;BME280;16365;51.598;7.668;2023-02-13T02:08:17;103056.09;;;14.62;48.20
29383;BME280;16365;51.598;7.668;2023-02-13T02:10:44;103053.28;;;14.62;47.74
29383;BME280;16365;51.598;7.668;2023-02-13T02:13:14;103051.63;;;14.61;47.95
29383;BME280;16365;51.598;7.668;2023-02-13T02:15:42;103052.16;;;14.63;47.96
29383;BME280;16365;51.598;7.668;2023-02-13T02:18:13;103046.34;;;14.60;48.51
29383;BME280;16365;51.598;7.668;2023-02-13T02:32:47;103049.69;;;14.62;48.24
29383;BME280;16365;51.598;7.668;2023-02-13T02:35:44;103044.69;;;14.59;48.34
29383;BME280;16365;51.598;7.668;2023-02-13T02:38:37;103049.97;;;14.60;48.48
29383;BME280;16365;51.598;7.668;2023-02-13T02:41:13;103046.88;;;14.62;47.87
29383;BME280;16365;51.598;7.668;2023-02-13T02:44:17;103038.81;;;14.60;48.10
29383;BME280;16365;51.598;7.668;2023-02-13T02:46:57;103039.91;;;14.59;48.09
29383;BME280;16365;51.598;7.668;2023-02-13T02:49:56;103038.81;;;14.60;47.94
29383;BME280;16365;51.598;7.668;2023-02-13T02:52:41;103043.03;;;14.58;48.18
29383;BME280;16365;51.598;7.668;2023-02-13T02:58:10;103030.50;;;14.55;48.44
29383;BME280;16365;51.598;7.668;2023-02-13T03:00:58;103031.03;;;14.57;47.77
29383;BME280;16365;51.598;7.668;2023-02-13T03:03:45;103018.72;;;14.58;47.62
29383;BME280;16365;51.598;7.668;2023-02-13T03:06:37;103034.13;;;14.56;47.78
29383;BME280;16365;51.598;7.668;2023-02-13T03:09:10;103031.34;;;14.56;47.76
29383;BME280;16365;51.598;7.668;2023-02-13T03:11:57;103038.56;;;14.57;47.50
29383;BME280;16365;51.598;7.668;2023-02-13T03:14:44;103027.41;;;14.57;47.83
29383;BME280;16365;51.598;7.668;2023-02-13T03:17:13;103033.31;;;14.55;47.53
29383;BME280;16365;51.598;7.668;2023-02-13T03:23:16;103028.31;;;14.52;48.01
29383;BME280;16365;51.598;7.668;2023-02-13T03:26:18;103029.44;;;14.51;47.61
29383;BME280;16365;51.598;7.668;2023-02-13T03:32:09;103028.81;;;14.54;47.79
29383;BME280;16365;51.598;7.668;2023-02-13T03:34:45;103038.03;;;14.55;47.32
29383;BME280;16365;51.598;7.668;2023-02-13T03:37:43;103031.34;;;14.56;47.60
29383;BME280;16365;51.598;7.668;2023-02-13T03:40:42;103038.34;;;14.53;48.00
29383;BME280;16365;51.598;7.668;2023-02-13T03:43:40;103040.00;;;14.54;47.34
29383;BME280;16365;51.598;7.668;2023-02-13T03:46:10;103041.66;;;14.55;47.42
29383;BME280;16365;51.598;7.668;2023-02-13T03:48:39;103050.31;;;14.54;47.64
29383;BME280;16365;51.598;7.668;2023-02-13T03:51:53;103045.34;;;14.51;47.60
29383;BME280;16365;51.598;7.668;2023-02-13T03:54:29;103049.81;;;14.52;47.13
29383;BME280;16365;51.598;7.668;2023-02-13T03:57:19;103054.25;;;14.53;47.65
29383;BME280;16365;51.598;7.668;2023-02-13T04:00:07;103039.78;;;14.51;47.56
29383;BME280;16365;51.598;7.668;2023-02-13T04:02:39;103049.56;;;14.48;47.26
29383;BME280;16365;51.598;7.668;2023-02-13T04:05:15;103048.19;;;14.46;47.75
29383;BME280;16365;51.598;7.668;2023-02-13T04:07:42;103045.38;;;14.46;47.74
29383;BME280;16365;51.598;7.668;2023-02-13T04:10:12;103047.31;;;14.45;47.81
29383;BME280;16365;51.598;7.668;2023-02-13T04:13:00;103043.19;;;14.43;47.93
29383;BME280;16365;51.598;7.668;2023-02-13T04:15:41;103048.44;;;14.44;47.65
29383;BME280;16365;51.598;7.668;2023-02-13T04:18:14;103044.31;;;14.42;47.48
29383;BME280;16365;51.598;7.668;2023-02-13T04:20:42;103047.63;;;14.44;47.54
29383;BME280;16365;51.598;7.668;2023-02-13T04:23:10;103045.16;;;14.42;47.55
29383;BME280;16365;51.598;7.668;2023-02-13T04:25:39;103050.16;;;14.40;47.19
29383;BME280;16365;51.598;7.668;2023-02-13T04:28:07;103049.06;;;14.41;47.46
29383;BME280;16365;51.598;7.668;2023-02-13T04:30:33;103053.78;;;14.40;47.29
29383;BME280;16365;51.598;7.668;2023-02-13T04:33:00;103052.97;;;14.40;47.16
29383;BME280;16365;51.598;7.668;2023-02-13T04:35:26;103046.56;;;14.39;47.62
29383;BME280;16365;51.598;7.668;2023-02-13T04:37:53;103056.06;;;14.38;47.26
29383;BME280;16365;51.598;7.668;2023-02-13T04:40:19;103055.22;;;14.38;47.22
29383;BME280;16365;51.598;7.668;2023-02-13T04:42:47;103054.97;;;14.34;46.88
29383;BME280;16365;51.598;7.668;2023-02-13T04:45:14;103051.38;;;14.34;46.85
29383;BME280;16365;51.598;7.668;2023-02-13T04:47:41;103050.84;;;14.32;47.20
29383;BME280;16365;51.598;7.668;2023-02-13T04:50:08;103048.31;;;14.30;46.79
29383;BME280;16365;51.598;7.668;2023-02-13T04:52:34;103048.63;;;14.29;47.15
29383;BME280;16365;51.598;7.668;2023-02-13T04:55:01;103049.78;;;14.28;47.38
29383;BME280;16365;51.598;7.668;2023-02-13T04:57:27;103042.81;;;14.25;46.64
29383;BME280;16365;51.598;7.668;2023-02-13T04:59:54;103051.47;;;14.24;46.87
29383;BME280;16365;51.598;7.668;2023-02-13T05:02:21;103047.88;;;14.23;47.08
29383;BME280;16365;51.598;7.668;2023-02-13T05:04:47;103047.03;;;14.23;47.28
29383;BME280;16365;51.598;7.668;2023-02-13T05:07:13;103036.16;;;14.21;47.50
29383;BME280;16365;51.598;7.668;2023-02-13T05:09:40;103045.38;;;14.22;47.21
29383;BME280;16365;51.598;7.668;2023-02-13T05:12:07;103040.91;;;14.21;47.21
29383;BME280;16365;51.598;7.668;2023-02-13T05:14:33;103040.91;;;14.21;47.35
29383;BME280;16365;51.598;7.668;2023-02-13T05:17:00;103045.97;;;14.19;47.08
29383;BME280;16365;51.598;7.668;2023-02-13T05:19:26;103038.41;;;14.19;47.44
29383;BME280;16365;51.598;7.668;2023-02-13T05:21:53;103040.38;;;14.19;46.67
29383;BME280;16365;51.598;7.668;2023-02-13T05:24:38;103039.56;;;14.18;46.95
29383;BME280;16365;51.598;7.668;2023-02-13T05:27:04;103043.16;;;14.19;47.58
29383;BME280;16365;51.598;7.668;2023-02-13T05:29:30;103042.34;;;14.18;47.33
29383;BME280;16365;51.598;7.668;2023-02-13T05:31:58;103041.50;;;14.18;47.25
29383;BME280;16365;51.598;7.668;2023-02-13T05:34:26;103036.75;;;14.18;46.98
29383;BME280;16365;51.598;7.668;2023-02-13T05:36:53;103043.16;;;14.19;47.27
29383;BME280;16365;51.598;7.668;2023-02-13T05:39:21;103039.56;;;14.18;46.99
29383;BME280;16365;51.598;7.668;2023-02-13T05:41:48;103034.81;;;14.19;46.84
29383;BME280;16365;51.598;7.668;2023-02-13T05:44:15;103043.16;;;14.19;46.96
29383;BME280;16365;51.598;7.668;2023-02-13T05:46:42;103040.38;;;14.19;47.42
29383;BME280;16365;51.598;7.668;2023-02-13T05:49:11;103035.63;;;14.19;47.26
29383;BME280;16365;51.598;7.668;2023-02-13T05:51:38;103033.66;;;14.20;46.97
29383;BME280;16365;51.598;7.668;2023-02-13T05:54:05;103034.50;;;14.20;47.61
29383;BME280;16365;51.598;7.668;2023-02-13T05:56:31;103035.31;;;14.21;47.26
29383;BME280;16365;51.598;7.668;2023-02-13T05:58:58;103035.31;;;14.21;47.12
29383;BME280;16365;51.598;7.668;2023-02-13T06:01:24;103035.63;;;14.19;47.00
29383;BME280;16365;51.598;7.668;2023-02-13T06:03:51;103036.47;;;14.20;47.02
29383;BME280;16365;51.598;7.668;2023-02-13T06:06:17;103036.75;;;14.18;47.01
29383;BME280;16365;51.598;7.668;2023-02-13T06:08:44;103032.31;;;14.17;46.87
29383;BME280;16365;51.598;7.668;2023-02-13T06:11:11;103043.47;;;14.17;47.36
29383;BME280;16365;51.598;7.668;2023-02-13T06:13:37;103047.38;;;14.16;47.48
29383;BME280;16365;51.598;7.668;2023-02-13T06:16:09;103048.50;;;14.15;47.53
29383;BME280;16365;51.598;7.668;2023-02-13T06:18:36;103050.16;;;14.16;47.34
29383;BME280;16365;51.598;7.668;2023-02-13T06:21:03;103039.00;;;14.16;47.33
29383;BME280;16365;51.598;7.668;2023-02-13T06:23:29;103045.72;;;14.15;47.31
29383;BME280;16365;51.598;7.668;2023-02-13T06:26:01;103050.78;;;14.13;47.31
29383;BME280;16365;51.598;7.668;2023-02-13T06:28:27;103041.25;;;14.14;47.56
29383;BME280;16365;51.598;7.668;2023-02-13T06:30:54;103044.56;;;14.16;47.80
29383;BME280;16365;51.598;7.668;2023-02-13T06:33:21;103047.38;;;14.16;47.34
29383;BME280;16365;51.598;7.668;2023-02-13T06:35:48;103050.97;;;14.17;47.19
29383;BME280;16365;51.598;7.668;2023-02-13T06:38:15;103048.19;;;14.17;47.23
29383;BME280;16365;51.598;7.668;2023-02-13T06:40:48;103051.28;;;14.15;47.20
29383;BME280;16365;51.598;7.668;2023-02-13T06:43:14;103049.06;;;14.17;47.65
29383;BME280;16365;51.598;7.668;2023-02-13T06:45:42;103050.16;;;14.16;47.53
29383;BME280;16365;51.598;7.668;2023-02-13T06:48:08;103047.38;;;14.16;47.42
29383;BME280;16365;51.598;7.668;2023-02-13T06:50:35;103050.97;;;14.17;47.41
29383;BME280;16365;51.598;7.668;2023-02-13T06:53:01;103047.38;;;14.16;47.37
29383;BME280;16365;51.598;7.668;2023-02-13T06:55:28;103046.53;;;14.15;47.36
29383;BME280;16365;51.598;7.668;2023-02-13T06:57:54;103049.88;;;14.18;47.36
29383;BME280;16365;51.598;7.668;2023-02-13T07:00:21;103049.88;;;14.18;47.64
29383;BME280;16365;51.598;7.668;2023-02-13T07:02:51;103047.91;;;14.18;47.74
29383;BME280;16365;51.598;7.668;2023-02-13T07:05:18;103047.63;;;14.20;47.31
29383;BME280;16365;51.598;7.668;2023-02-13T07:07:44;103047.63;;;14.20;47.67
29383;BME280;16365;51.598;7.668;2023-02-13T07:10:12;103055.16;;;14.19;46.86
29383;BME280;16365;51.598;7.668;2023-02-13T07:12:40;103054.03;;;14.20;47.48
29383;BME280;16365;51.598;7.668;2023-02-13T07:15:06;103056.00;;;14.20;47.15
29383;BME280;16365;51.598;7.668;2023-02-13T07:17:33;103052.38;;;14.19;47.40
29383;BME280;16365;51.598;7.668;2023-02-13T07:20:00;103057.94;;;14.19;47.20
29383;BME280;16365;51.598;7.668;2023-02-13T07:22:27;103065.50;;;14.19;47.11
29383;BME280;16365;51.598;7.668;2023-02-13T07:24:53;103066.31;;;14.19;46.79
29383;BME280;16365;51.598;7.668;2023-02-13T07:27:19;103068.59;;;14.17;46.67
29383;BME280;16365;51.598;7.668;2023-02-13T07:29:46;103064.94;;;14.17;46.99
29383;BME280;16365;51.598;7.668;2023-02-13T07:32:12;103068.03;;;14.15;46.97
29383;BME280;16365;51.598;7.668;2023-02-13T07:34:39;103068.34;;;14.13;46.93
29383;BME280;16365;51.598;7.668;2023-02-13T07:37:26;103070.88;;;14.10;47.13
29383;BME280;16365;51.598;7.668;2023-02-13T07:39:53;103070.03;;;14.09;46.98
29383;BME280;16365;51.598;7.668;2023-02-13T07:42:20;103078.41;;;14.09;46.93
29383;BME280;16365;51.598;7.668;2023-02-13T07:44:46;103073.13;;;14.08;47.28
29383;BME280;16365;51.598;7.668;2023-02-13T07:47:13;103075.94;;;14.08;47.34
29383;BME280;16365;51.598;7.668;2023-02-13T07:49:39;103077.88;;;14.07;47.63
29383;BME280;16365;51.598;7.668;2023-02-13T07:52:06;103078.41;;;14.09;47.36
29383;BME280;16365;51.598;7.668;2023-02-13T07:54:32;103077.28;;;14.10;47.84
29383;BME280;16365;51.598;7.668;2023-02-13T07:56:58;103071.13;;;14.13;47.82
29383;BME280;16365;51.598;7.668;2023-02-13T07:59:25;103074.16;;;14.17;47.73
29383;BME280;16365;51.598;7.668;2023-02-13T08:01:51;103075.22;;;14.21;47.73
29383;BME280;16365;51.598;7.668;2023-02-13T08:04:18;103076.28;;;14.25;47.85
29383;BME280;16365;51.598;7.668;2023-02-13T08:06:44;103077.38;;;14.29;47.60
29383;BME280;16365;51.598;7.668;2023-02-13T08:09:18;103076.78;;;14.32;47.78
29383;BME280;16365;51.598;7.668;2023-02-13T08:12:07;103078.69;;;14.37;47.49
29383;BME280;16365;51.598;7.668;2023-02-13T08:14:34;103083.66;;;14.40;47.38
29383;BME280;16365;51.598;7.668;2023-02-13T08:17:00;103085.34;;;14.41;46.76
29383;BME280;16365;51.598;7.668;2023-02-13T08:19:27;103087.28;;;14.40;47.26
29383;BME280;16365;51.598;7.668;2023-02-13T08:21:54;103084.78;;;14.39;47.16
29383;BME280;16365;51.598;7.668;2023-02-13T08:24:20;103087.59;;;14.39;46.88
29383;BME280;16365;51.598;7.668;2023-02-13T08:26:47;103094.59;;;14.36;47.01
29383;BME280;16365;51.598;7.668;2023-02-13T08:29:13;103091.81;;;14.36;47.00
29383;BME280;16365;51.598;7.668;2023-02-13T08:31:40;103098.22;;;14.37;47.20
29383;BME280;16365;51.598;7.668;2023-02-13T08:34:06;103094.31;;;14.38;46.87
29383;BME280;16365;51.598;7.668;2023-02-13T08:36:33;103095.13;;;14.38;47.39
29383;BME280;16365;51.598;7.668;2023-02-13T08:39:00;103092.03;;;14.40;47.41
29383;BME280;16365;51.598;7.668;2023-02-13T08:41:26;103092.59;;;14.42;47.01
29383;BME280;16365;51.598;7.668;2023-02-13T08:43:53;103089.81;;;14.42;46.92
29383;BME280;16365;51.598;7.668;2023-02-13T08:46:20;103086.69;;;14.44;46.93
29383;BME280;16365;51.598;7.668;2023-02-13T08:48:46;103084.75;;;14.44;46.71
29383;BME280;16365;51.598;7.668;2023-02-13T08:51:13;103081.66;;;14.46;47.18
29383;BME280;16365;51.598;7.668;2023-02-13T08:53:40;103076.66;;;14.48;47.45
29383;BME280;16365;51.598;7.668;2023-02-13T08:56:08;103078.31;;;14.49;46.51
29383;BME280;16365;51.598;7.668;2023-02-13T08:58:34;103077.16;;;14.50;47.21
29383;BME280;16365;51.598;7.668;2023-02-13T09:01:06;103078.31;;;14.49;47.10
29383;BME280;16365;51.598;7.668;2023-02-13T09:03:34;103074.94;;;14.52;47.11
29383;BME280;16365;51.598;7.668;2023-02-13T09:06:01;103081.34;;;14.52;47.04
29383;BME280;16365;51.598;7.668;2023-02-13T09:08:29;103081.84;;;14.54;47.14
29383;BME280;16365;51.598;7.668;2023-02-13T09:10:58;103079.91;;;14.55;46.70
29383;BME280;16365;51.598;7.668;2023-02-13T09:13:25;103080.44;;;14.57;46.58
29383;BME280;16365;51.598;7.668;2023-02-13T09:15:51;103082.09;;;14.58;46.92
29383;BME280;16365;51.598;7.668;2023-02-13T09:18:18;103085.41;;;14.60;47.08
29383;BME280;16365;51.598;7.668;2023-02-13T09:20:45;103084.31;;;14.61;46.21
29383;BME280;16365;51.598;7.668;2023-02-13T09:23:11;103082.03;;;14.63;46.84
29383;BME280;16365;51.598;7.668;2023-02-13T09:25:38;103081.75;;;14.64;47.28
29383;BME280;16365;51.598;7.668;2023-02-13T09:28:04;103081.16;;;14.68;47.09
29383;BME280;16365;51.598;7.668;2023-02-13T09:30:30;103082.53;;;14.70;46.99
29383;BME280;16365;51.598;7.668;2023-02-13T09:32:57;103077.16;;;14.74;46.68
29383;BME280;16365;51.598;7.668;2023-02-13T09:35:23;103081.63;;;14.75;46.63
29383;BME280;16365;51.598;7.668;2023-02-13T09:37:50;103074.91;;;14.76;46.76
29383;BME280;16365;51.598;7.668;2023-02-13T09:40:34;103071.81;;;14.77;46.94
29383;BME280;16365;51.598;7.668;2023-02-13T09:43:35;103085.19;;;14.80;46.88
29383;BME280;16365;51.598;7.668;2023-02-13T09:46:11;103077.56;;;14.86;46.49
29383;BME280;16365;51.598;7.668;2023-02-13T09:48:41;103086.72;;;14.91;46.65
29383;BME280;16365;51.598;7.668;2023-02-13T09:51:15;103082.78;;;14.93;46.49
29383;BME280;16365;51.598;7.668;2023-02-13T09:53:50;103081.66;;;14.94;46.52
29383;BME280;16365;51.598;7.668;2023-02-13T09:56:26;103086.66;;;14.97;46.36
29383;BME280;16365;51.598;7.668;2023-02-13T10:01:49;103083.72;;;15.07;46.60
29383;BME280;16365;51.598;7.668;2023-02-13T10:05:02;103084.53;;;15.07;46.36
29383;BME280;16365;51.598;7.668;2023-02-13T10:16:09;103084.38;;;15.17;45.48
29383;BME280;16365;51.598;7.668;2023-02-13T10:19:27;103078.22;;;15.21;45.63
29383;BME280;16365;51.598;7.668;2023-02-13T10:22:03;103072.84;;;15.24;45.86
29383;BME280;16365;51.598;7.668;2023-02-13T10:24:36;103082.91;;;15.25;45.77
29383;BME280;16365;51.598;7.668;2023-02-13T10:27:19;103079.28;;;15.25;45.84
29383;BME280;16365;51.598;7.668;2023-02-13T10:29:50;103072.78;;;15.29;45.94
29383;BME280;16365;51.598;7.668;2023-02-13T10:32:42;103087.00;;;15.33;45.56
29383;BME280;16365;51.598;7.668;2023-02-13T10:35:25;103091.13;;;15.35;45.60
29383;BME280;16365;51.598;7.668;2023-02-13T10:37:56;103081.00;;;15.39;45.75
29383;BME280;16365;51.598;7.668;2023-02-13T10:40:30;103082.34;;;15.42;45.66
29383;BME280;16365;51.598;7.668;2023-02-13T10:45:53;103082.50;;;15.51;45.29
29383;BME280;16365;51.598;7.668;2023-02-13T10:48:28;103079.34;;;15.57;45.53
29383;BME280;16365;51.598;7.668;2023-02-13T10:51:13;103078.72;;;15.60;45.51
29383;BME280;16365;51.598;7.668;2023-02-13T10:54:00;103074.22;;;15.64;45.15
29383;BME280;16365;51.598;7.668;2023-02-13T10:56:42;103067.69;;;15.69;44.88
29383;BME280;16365;51.598;7.668;2023-02-13T10:59:37;103067.38;;;15.71;44.69
29383;BME280;16365;51.598;7.668;2023-02-13T11:04:42;103060.59;;;15.77;44.85
29383;BME280;16365;51.598;7.668;2023-02-13T11:07:14;103063.06;;;15.78;45.22
29383;BME280;16365;51.598;7.668;2023-02-13T11:09:44;103071.38;;;15.83;44.98
29383;BME280;16365;51.598;7.668;2023-02-13T11:12:28;103072.50;;;15.82;44.96
29383;BME280;16365;51.598;7.668;2023-02-13T11:15:04;103058.75;;;15.86;44.80
29383;BME280;16365;51.598;7.668;2023-02-13T11:17:33;103059.50;;;15.91;44.99
29383;BME280;16365;51.598;7.668;2023-02-13T11:20:05;103058.03;;;15.94;44.89
29383;BME280;16365;51.598;7.668;2023-02-13T11:22:36;103051.81;;;15.97;45.20
29383;BME280;16365;51.598;7.668;2023-02-13T11:25:24;103057.44;;;15.97;44.76
29383;BME280;16365;51.598;7.668;2023-02-13T11:28:07;103048.41;;;16.00;44.74
29383;BME280;16365;51.598;7.668;2023-02-13T11:30:35;103051.63;;;16.07;44.72
29383;BME280;16365;51.598;7.668;2023-02-13T11:33:28;103044.06;;;16.08;44.43
29383;BME280;16365;51.598;7.668;2023-02-13T11:36:28;103043.16;;;16.12;44.53
29383;BME280;16365;51.598;7.668;2023-02-13T11:38:57;103044.69;;;16.18;44.87
29383;BME280;16365;51.598;7.668;2023-02-13T11:41:24;103045.75;;;16.23;44.61
29383;BME280;16365;51.598;7.668;2023-02-13T11:43:57;103041.50;;;16.25;44.14
29383;BME280;16365;51.598;7.668;2023-02-13T11:46:47;103036.94;;;16.29;44.23
29383;BME280;16365;51.598;7.668;2023-02-13T11:49:19;103020.88;;;16.35;44.28
29383;BME280;16365;51.598;7.668;2023-02-13T11:51:48;103032.81;;;16.40;44.39
29383;BME280;16365;51.598;7.668;2023-02-13T11:54:31;103026.06;;;16.41;43.93
29383;BME280;16365;51.598;7.668;2023-02-13T11:57:01;103026.16;;;16.50;44.46
29383;BME280;16365;51.598;7.668;2023-02-13T11:59:39;103033.09;;;16.53;43.85
29383;BME280;16365;51.598;7.668;2023-02-13T12:02:16;103024.09;;;16.56;43.91
29383;BME280;16365;51.598;7.668;2023-02-13T12:04:44;103021.66;;;16.63;43.89
29383;BME280;16365;51.598;7.668;2023-02-13T12:07:29;103018.03;;;16.62;43.63
29383;BME280;16365;51.598;7.668;2023-02-13T12:09:59;103015.97;;;16.68;43.54
29383;BME280;16365;51.598;7.668;2023-02-13T12:12:33;103017.31;;;16.70;43.52
29383;BME280;16365;51.598;7.668;2023-02-13T12:15:15;103008.63;;;16.72;43.28
29383;BME280;16365;51.598;7.668;2023-02-13T12:17:44;103005.72;;;16.77;43.76
29383;BME280;16365;51.598;7.668;2023-02-13T12:20:14;103006.25;;;16.79;43.74
29383;BME280;16365;51.598;7.668;2023-02-13T12:28:11;102989.00;;;16.86;43.61
29383;BME280;16365;51.598;7.668;2023-02-13T12:30:57;102973.81;;;16.87;43.29
29383;BME280;16365;51.598;7.668;2023-02-13T12:36:32;102964.69;;;16.95;43.69
29383;BME280;16365;51.598;7.668;2023-02-13T12:39:23;102971.00;;;17.01;43.00
29383;BME280;16365;51.598;7.668;2023-02-13T12:47:29;102965.59;;;17.04;42.73
29383;BME280;16365;51.598;7.668;2023-02-13T12:50:32;102965.59;;;17.04;42.97
29383;BME280;16365;51.598;7.668;2023-02-13T13:01:25;102946.47;;;17.06;42.92
29383;BME280;16365;51.598;7.668;2023-02-13T13:04:16;102947.00;;;17.08;43.00
29383;BME280;16365;51.598;7.668;2023-02-13T13:09:52;102938.13;;;17.15;43.52
29383;BME280;16365;51.598;7.668;2023-02-13T13:12:33;102934.81;;;17.13;42.74
29383;BME280;16365;51.598;7.668;2023-02-13T13:15:26;102936.16;;;17.15;43.01
29383;BME280;16365;51.598;7.668;2023-02-13T13:18:12;102935.03;;;17.16;42.98
29383;BME280;16365;51.598;7.668;2023-02-13T13:21:08;102935.19;;;17.20;43.09
29383;BME280;16365;51.598;7.668;2023-02-13T13:24:06;102930.59;;;17.24;43.01
29383;BME280;16365;51.598;7.668;2023-02-13T13:26:42;102925.19;;;17.28;42.79
29383;BME280;16365;51.598;7.668;2023-02-13T13:29:19;102919.78;;;17.31;43.00
29383;BME280;16365;51.598;7.668;2023-02-13T13:31:55;102919.13;;;17.34;42.79
29383;BME280;16365;51.598;7.668;2023-02-13T13:34:24;102920.16;;;17.38;43.07
29383;BME280;16365;51.598;7.668;2023-02-13T13:37:03;102912.88;;;17.37;42.54
29383;BME280;16365;51.598;7.668;2023-02-13T13:42:26;102915.03;;;17.40;43.33
29383;BME280;16365;51.598;7.668;2023-02-13T13:48:02;102910.91;;;17.38;42.56
29383;BME280;16365;51.598;7.668;2023-02-13T13:50:35;102910.59;;;17.39;42.88
29383;BME280;16365;51.598;7.668;2023-02-13T14:01:29;102903.13;;;17.35;42.68
29383;BME280;16365;51.598;7.668;2023-02-13T14:03:58;102899.69;;;17.38;42.68
29383;BME280;16365;51.598;7.668;2023-02-13T14:07:13;102905.63;;;17.36;42.58
29383;BME280;16365;51.598;7.668;2023-02-13T14:11:53;102900.84;;;17.37;42.88
29383;BME280;16365;51.598;7.668;2023-02-13T14:16:57;102908.72;;;17.35;42.79
29383;BME280;16365;51.598;7.668;2023-02-13T14:19:29;102905.44;;;17.33;42.73
29383;BME280;16365;51.598;7.668;2023-02-13T14:25:05;102894.84;;;17.30;42.39
29383;BME280;16365;51.598;7.668;2023-02-13T14:27:36;102886.97;;;17.32;42.96
29383;BME280;16365;51.598;7.668;2023-02-13T14:30:06;102901.00;;;17.32;42.68
29383;BME280;16365;51.598;7.668;2023-02-13T14:32:48;102891.75;;;17.31;43.21
29383;BME280;16365;51.598;7.668;2023-02-13T14:35:26;102892.06;;;17.30;42.91
29383;BME280;16365;51.598;7.668;2023-02-13T14:37:56;102886.16;;;17.31;42.71
29383;BME280;16365;51.598;7.668;2023-02-13T14:40:29;102885.28;;;17.31;42.73
29383;BME280;16365;51.598;7.668;2023-02-13T14:43:15;102887.28;;;17.30;42.78
29383;BME280;16365;51.598;7.668;2023-02-13T14:45:52;102888.94;;;17.31;42.87
29383;BME280;16365;51.598;7.668;2023-02-13T14:48:21;102879.69;;;17.31;43.00